createdAt,value
2019-03-17T00:00:10.867Z,50.96
2019-03-17T00:01:12.268Z,51.45
2019-03-17T00:02:10.848Z,50.04
2019-03-17T00:03:10.835Z,50.04
2019-03-17T00:04:10.826Z,50.76
2019-03-17T00:05:10.813Z,50.66
2019-03-17T00:06:10.816Z,50.56
2019-03-17T00:07:10.798Z,50.25
2019-03-17T00:08:10.783Z,50.35
2019-03-17T00:09:10.773Z,49.84
2019-03-17T00:10:10.761Z,49.74
2019-03-17T00:11:10.762Z,49.95
2019-03-17T00:12:10.741Z,49.43
2019-03-17T00:13:10.729Z,49.95
2019-03-17T00:14:10.723Z,49.43
2019-03-17T00:15:10.712Z,48.72
2019-03-17T00:16:10.713Z,48.82
2019-03-17T00:17:10.687Z,48.82
2019-03-17T00:18:10.677Z,49.00
2019-03-17T00:19:10.668Z,49.02
2019-03-17T00:20:10.661Z,48.92
2019-03-17T00:21:10.659Z,48.92
2019-03-17T00:22:10.639Z,49.22
2019-03-17T00:23:10.624Z,49.43
2019-03-17T00:24:10.616Z,49.43
2019-03-17T00:25:10.605Z,48.92
2019-03-17T00:26:10.609Z,49.43
2019-03-17T00:27:10.595Z,49.13
2019-03-17T00:28:10.572Z,49.13
2019-03-17T00:29:10.562Z,49.22
2019-03-17T00:30:10.551Z,49.02
2019-03-17T00:31:22.906Z,49.35
2019-03-17T00:32:11.530Z,48.54
2019-03-17T00:33:10.529Z,49.05
2019-03-17T00:34:10.509Z,48.64
2019-03-17T00:35:10.506Z,48.92
2019-03-17T00:36:10.502Z,48.61
2019-03-17T00:37:10.482Z,48.33
2019-03-17T00:38:10.466Z,48.43
2019-03-17T00:39:10.461Z,48.43
2019-03-17T00:40:10.458Z,49.05
2019-03-17T00:41:10.446Z,48.33
2019-03-17T00:42:10.426Z,48.13
2019-03-17T00:43:10.414Z,48.43
2019-03-17T00:44:10.406Z,48.33
2019-03-17T00:45:11.749Z,48.84
2019-03-17T00:46:10.411Z,48.94
2019-03-17T00:47:10.884Z,48.33
2019-03-17T00:48:10.360Z,48.33
2019-03-17T00:49:10.352Z,48.33
2019-03-17T00:50:10.339Z,48.94
2019-03-17T00:51:10.329Z,48.23
2019-03-17T00:52:10.331Z,48.33
2019-03-17T00:53:10.308Z,48.84
2019-03-17T00:54:10.303Z,48.84
2019-03-17T00:55:10.317Z,48.23
2019-03-17T00:56:10.276Z,48.25
2019-03-17T00:57:10.280Z,49.07
2019-03-17T00:58:10.256Z,48.23
2019-03-17T00:59:10.244Z,47.44
2019-03-17T01:00:10.237Z,48.02
2019-03-17T01:01:10.224Z,48.33
2019-03-17T01:02:10.286Z,48.15
2019-03-17T01:03:10.203Z,48.56
2019-03-17T01:04:10.193Z,48.25
2019-03-17T01:05:10.183Z,48.76
2019-03-17T01:06:10.172Z,48.46
2019-03-17T01:07:10.175Z,48.15
2019-03-17T01:08:10.156Z,48.25
2019-03-17T01:09:10.142Z,48.05
2019-03-17T01:10:10.209Z,48.46
2019-03-17T01:11:10.122Z,47.61
2019-03-17T01:12:10.121Z,48.25
2019-03-17T01:13:10.097Z,48.56
2019-03-17T01:14:10.092Z,48.25
2019-03-17T01:15:10.082Z,48.15
2019-03-17T01:16:10.065Z,47.94
2019-03-17T01:17:10.066Z,47.44
2019-03-17T01:18:10.044Z,47.53
2019-03-17T01:19:10.034Z,47.64
2019-03-17T01:20:10.040Z,47.53
2019-03-17T01:21:10.012Z,47.85
2019-03-17T01:22:10.014Z,47.64
2019-03-17T01:23:09.991Z,48.46
2019-03-17T01:24:10.486Z,48.38
2019-03-17T01:25:10.044Z,48.38
2019-03-17T01:26:09.959Z,48.99
2019-03-17T01:27:09.961Z,48.58
2019-03-17T01:28:09.959Z,48.48
2019-03-17T01:29:09.929Z,48.07
2019-03-17T01:30:09.918Z,48.07
2019-03-17T01:31:09.908Z,48.68
2019-03-17T01:32:09.909Z,48.48
2019-03-17T01:33:09.886Z,48.40
2019-03-17T01:34:09.876Z,48.81
2019-03-17T01:35:10.294Z,48.48
2019-03-17T01:36:09.857Z,49.52
2019-03-17T01:37:09.856Z,48.71
2019-03-17T01:38:09.836Z,49.11
2019-03-17T01:39:09.829Z,49.34
2019-03-17T01:40:09.816Z,48.83
2019-03-17T01:41:09.801Z,48.63
2019-03-17T01:42:09.802Z,48.63
2019-03-17T01:43:09.779Z,49.04
2019-03-17T01:44:09.771Z,49.85
2019-03-17T01:45:09.773Z,49.34
2019-03-17T01:46:09.748Z,48.85
2019-03-17T01:47:09.784Z,48.96
2019-03-17T01:48:09.727Z,50.09
2019-03-17T01:49:09.722Z,49.88
2019-03-17T01:50:09.708Z,48.85
2019-03-17T01:51:09.694Z,49.37
2019-03-17T01:52:09.686Z,49.88
2019-03-17T01:53:09.690Z,50.49
2019-03-17T01:54:09.664Z,49.67
2019-03-17T01:55:09.667Z,50.09
2019-03-17T01:56:09.642Z,50.09
2019-03-17T01:57:09.632Z,50.18
2019-03-17T01:58:09.626Z,50.10
2019-03-17T01:59:09.610Z,51.34
2019-03-17T02:00:09.598Z,50.72
2019-03-17T02:01:11.816Z,50.01
2019-03-17T02:02:09.584Z,50.42
2019-03-17T02:03:09.572Z,50.72
2019-03-17T02:04:09.557Z,50.21
2019-03-17T02:05:21.323Z,50.54
2019-03-17T02:06:10.534Z,51.87
2019-03-17T02:07:09.525Z,50.85
2019-03-17T02:08:09.523Z,51.03
2019-03-17T02:09:09.504Z,51.15
2019-03-17T02:10:09.501Z,51.26
2019-03-17T02:11:09.492Z,51.98
2019-03-17T02:12:09.473Z,51.67
2019-03-17T02:13:09.464Z,52.00
2019-03-17T02:14:09.451Z,50.44
2019-03-17T02:15:09.441Z,51.69
2019-03-17T02:16:09.431Z,50.64
2019-03-17T02:17:09.419Z,51.77
2019-03-17T02:18:09.411Z,51.59
2019-03-17T02:19:09.400Z,51.05
2019-03-17T02:20:09.438Z,50.85
2019-03-17T02:21:09.376Z,50.56
2019-03-17T02:22:09.367Z,50.46
2019-03-17T02:23:09.361Z,50.77
2019-03-17T02:24:09.352Z,50.46
2019-03-17T02:25:09.337Z,50.54
2019-03-17T02:26:09.324Z,50.77
2019-03-17T02:27:09.314Z,50.97
2019-03-17T02:28:09.318Z,50.26
2019-03-17T02:29:09.308Z,51.18
2019-03-17T02:30:09.299Z,50.26
2019-03-17T02:31:09.273Z,50.97
2019-03-17T02:32:09.263Z,50.56
2019-03-17T02:33:09.254Z,50.77
2019-03-17T02:34:11.785Z,50.97
2019-03-17T02:35:09.229Z,50.99
2019-03-17T02:36:09.223Z,51.10
2019-03-17T02:37:09.208Z,50.69
2019-03-17T02:38:09.211Z,50.38
2019-03-17T02:39:09.186Z,50.38
2019-03-17T02:40:09.178Z,50.99
2019-03-17T02:41:09.167Z,51.20
2019-03-17T02:42:09.156Z,51.41
2019-03-17T02:43:09.155Z,51.20
2019-03-17T02:44:09.138Z,50.59
2019-03-17T02:45:09.127Z,50.07
2019-03-17T02:46:09.120Z,49.66
2019-03-17T02:47:09.106Z,49.87
2019-03-17T02:48:09.115Z,50.48
2019-03-17T02:49:09.081Z,49.87
2019-03-17T02:50:09.075Z,49.66
2019-03-17T02:51:09.060Z,49.97
2019-03-17T02:52:09.081Z,50.79
2019-03-17T02:53:09.055Z,50.38
2019-03-17T02:54:09.121Z,50.90
2019-03-17T02:55:09.019Z,50.18
2019-03-17T02:56:09.007Z,50.48
2019-03-17T02:57:08.998Z,50.99
2019-03-17T02:58:08.999Z,50.48
2019-03-17T02:59:08.988Z,50.79
2019-03-17T03:00:08.966Z,50.38
2019-03-17T03:01:08.958Z,50.28
2019-03-17T03:02:08.947Z,50.51
2019-03-17T03:03:08.933Z,50.90
2019-03-17T03:04:08.935Z,49.17
2019-03-17T03:05:08.929Z,49.87
2019-03-17T03:06:08.932Z,49.05
2019-03-17T03:07:08.899Z,49.35
2019-03-17T03:08:08.895Z,49.35
2019-03-17T03:09:08.885Z,49.15
2019-03-17T03:10:08.868Z,49.05
2019-03-17T03:11:08.870Z,49.07
2019-03-17T03:12:08.840Z,48.97
2019-03-17T03:13:08.829Z,49.17
2019-03-17T03:14:08.830Z,49.27
2019-03-17T03:15:08.808Z,48.97
2019-03-17T03:16:08.797Z,49.17
2019-03-17T03:17:08.798Z,48.86
2019-03-17T03:18:08.777Z,48.35
2019-03-17T03:19:08.776Z,48.35
2019-03-17T03:20:08.754Z,48.86
2019-03-17T03:21:08.746Z,48.64
2019-03-17T03:22:08.754Z,48.94
2019-03-17T03:23:08.746Z,48.54
2019-03-17T03:24:08.727Z,48.13
2019-03-17T03:25:08.705Z,48.64
2019-03-17T03:26:08.693Z,48.64
2019-03-17T03:27:08.683Z,48.46
2019-03-17T03:28:08.671Z,48.64
2019-03-17T03:29:08.676Z,48.56
2019-03-17T03:30:08.712Z,48.33
2019-03-17T03:31:08.641Z,48.84
2019-03-17T03:32:08.634Z,48.74
2019-03-17T03:33:08.625Z,49.58
2019-03-17T03:34:08.622Z,49.07
2019-03-17T03:35:08.600Z,48.84
2019-03-17T03:36:11.300Z,49.05
2019-03-17T03:37:08.575Z,49.15
2019-03-17T03:38:08.576Z,48.64
2019-03-17T03:39:08.574Z,48.46
2019-03-17T03:40:08.545Z,48.84
2019-03-17T03:41:08.540Z,49.15
2019-03-17T03:42:08.542Z,48.64
2019-03-17T03:43:08.521Z,48.54
2019-03-17T03:44:08.515Z,48.54
2019-03-17T03:45:08.493Z,48.54
2019-03-17T03:46:08.496Z,48.13
2019-03-17T03:47:08.469Z,47.79
2019-03-17T03:48:08.460Z,47.81
2019-03-17T03:49:08.462Z,47.79
2019-03-17T03:50:08.439Z,47.69
2019-03-17T03:51:08.431Z,47.69
2019-03-17T03:52:08.417Z,47.69
2019-03-17T03:53:08.407Z,47.69
2019-03-17T03:54:08.412Z,47.18
2019-03-17T03:55:08.384Z,46.67
2019-03-17T03:56:08.377Z,46.44
2019-03-17T03:57:08.371Z,46.34
2019-03-17T03:58:08.356Z,46.75
2019-03-17T03:59:08.354Z,46.75
2019-03-17T04:00:08.336Z,46.54
2019-03-17T04:01:08.322Z,46.85
2019-03-17T04:02:08.312Z,46.23
2019-03-17T04:03:08.303Z,47.67
2019-03-17T04:04:08.306Z,47.26
2019-03-17T04:05:08.286Z,46.95
2019-03-17T04:06:08.344Z,46.95
2019-03-17T04:07:08.259Z,45.93
2019-03-17T04:08:08.249Z,46.44
2019-03-17T04:09:08.262Z,45.93
2019-03-17T04:10:08.246Z,44.57
2019-03-17T04:11:08.221Z,44.98
2019-03-17T04:12:08.209Z,45.60
2019-03-17T04:13:08.196Z,44.37
2019-03-17T04:14:08.482Z,44.55
2019-03-17T04:15:08.245Z,44.86
2019-03-17T04:16:08.167Z,44.45
2019-03-17T04:17:08.161Z,44.37
2019-03-17T04:18:08.143Z,44.78
2019-03-17T04:19:08.137Z,44.98
2019-03-17T04:20:08.135Z,44.88
2019-03-17T04:21:08.115Z,44.17
2019-03-17T04:22:08.101Z,44.17
2019-03-17T04:23:08.094Z,44.68
2019-03-17T04:24:08.083Z,44.88
2019-03-17T04:25:08.254Z,44.06
2019-03-17T04:26:08.059Z,43.65
2019-03-17T04:27:08.053Z,44.17
2019-03-17T04:28:08.039Z,44.26
2019-03-17T04:29:08.031Z,44.17
2019-03-17T04:30:08.029Z,44.57
2019-03-17T04:31:08.005Z,44.06
2019-03-17T04:32:08.011Z,44.98
2019-03-17T04:33:07.990Z,44.37
2019-03-17T04:34:07.977Z,44.26
2019-03-17T04:35:07.986Z,44.06
2019-03-17T04:36:07.952Z,43.44
2019-03-17T04:37:07.944Z,44.57
2019-03-17T04:38:07.936Z,44.06
2019-03-17T04:39:07.924Z,44.17
2019-03-17T04:40:07.924Z,43.96
2019-03-17T04:41:07.899Z,43.24
2019-03-17T04:42:07.889Z,43.65
2019-03-17T04:43:07.880Z,43.55
2019-03-17T04:44:20.039Z,43.85
2019-03-17T04:45:08.861Z,43.65
2019-03-17T04:46:07.847Z,44.06
2019-03-17T04:47:07.837Z,44.57
2019-03-17T04:48:07.831Z,44.78
2019-03-17T04:49:07.815Z,44.90
2019-03-17T04:50:07.821Z,45.90
2019-03-17T04:51:07.798Z,45.83
2019-03-17T04:52:07.783Z,46.13
2019-03-17T04:53:07.773Z,46.34
2019-03-17T04:54:07.761Z,46.64
2019-03-17T04:55:07.771Z,47.08
2019-03-17T04:56:07.746Z,46.46
2019-03-17T04:57:07.730Z,46.87
2019-03-17T04:58:07.719Z,47.09
2019-03-17T04:59:07.709Z,47.00
2019-03-17T05:00:07.710Z,47.71
2019-03-17T05:01:07.688Z,48.43
2019-03-17T05:02:07.680Z,47.51
2019-03-17T05:03:07.671Z,47.53
2019-03-17T05:04:07.655Z,47.74
2019-03-17T05:05:07.666Z,48.14
2019-03-17T05:06:07.636Z,48.56
2019-03-17T05:07:07.625Z,49.17
2019-03-17T05:08:07.615Z,48.46
2019-03-17T05:09:07.608Z,48.66
2019-03-17T05:10:07.606Z,48.56
2019-03-17T05:11:07.610Z,48.46
2019-03-17T05:12:07.575Z,48.97
2019-03-17T05:13:07.563Z,48.56
2019-03-17T05:14:07.550Z,48.99
2019-03-17T05:15:07.581Z,49.40
2019-03-17T05:16:07.529Z,49.51
2019-03-17T05:17:07.527Z,48.68
2019-03-17T05:18:07.512Z,48.79
2019-03-17T05:19:07.503Z,48.47
2019-03-17T05:20:07.488Z,48.71
2019-03-17T05:21:07.487Z,48.27
2019-03-17T05:22:07.466Z,48.47
2019-03-17T05:23:07.459Z,49.19
2019-03-17T05:24:07.445Z,49.30
2019-03-17T05:25:07.436Z,49.32
2019-03-17T05:26:07.437Z,49.51
2019-03-17T05:27:07.412Z,49.19
2019-03-17T05:28:07.405Z,48.99
2019-03-17T05:29:07.394Z,49.51
2019-03-17T05:30:07.381Z,48.91
2019-03-17T05:31:07.383Z,48.81
2019-03-17T05:32:07.361Z,49.11
2019-03-17T05:33:07.350Z,48.71
2019-03-17T05:34:07.341Z,49.11
2019-03-17T05:35:07.329Z,49.32
2019-03-17T05:36:07.333Z,49.43
2019-03-17T05:37:07.322Z,49.63
2019-03-17T05:38:07.298Z,49.24
2019-03-17T05:39:07.294Z,49.32
2019-03-17T05:40:07.279Z,49.01
2019-03-17T05:41:07.284Z,48.71
2019-03-17T05:42:07.257Z,49.63
2019-03-17T05:43:07.242Z,48.93
2019-03-17T05:44:07.232Z,48.71
2019-03-17T05:45:07.225Z,48.50
2019-03-17T05:46:07.221Z,48.71
2019-03-17T05:47:07.200Z,48.29
2019-03-17T05:48:07.192Z,48.50
2019-03-17T05:49:07.183Z,48.50
2019-03-17T05:50:07.166Z,48.60
2019-03-17T05:51:07.171Z,48.38
2019-03-17T05:52:07.146Z,49.19
2019-03-17T05:53:07.135Z,48.68
2019-03-17T05:54:07.124Z,48.68
2019-03-17T05:55:07.115Z,48.99
2019-03-17T05:56:07.114Z,48.68
2019-03-17T05:57:07.094Z,49.19
2019-03-17T05:58:07.089Z,48.79
2019-03-17T05:59:07.071Z,48.99
2019-03-17T06:00:07.063Z,48.27
2019-03-17T06:01:07.062Z,48.60
2019-03-17T06:02:07.041Z,47.45
2019-03-17T06:03:07.028Z,48.17
2019-03-17T06:04:07.018Z,47.34
2019-03-17T06:05:07.022Z,47.45
2019-03-17T06:06:07.010Z,48.09
2019-03-17T06:07:18.023Z,47.66
2019-03-17T06:08:08.039Z,47.96
2019-03-17T06:09:06.963Z,48.47
2019-03-17T06:10:06.953Z,47.76
2019-03-17T06:11:06.957Z,48.07
2019-03-17T06:12:06.932Z,47.66
2019-03-17T06:13:06.922Z,48.47
2019-03-17T06:14:06.912Z,47.14
2019-03-17T06:15:06.902Z,47.53
2019-03-17T06:16:06.900Z,47.22
2019-03-17T06:17:06.880Z,47.63
2019-03-17T06:18:06.869Z,47.42
2019-03-17T06:19:06.857Z,46.71
2019-03-17T06:20:06.846Z,47.84
2019-03-17T06:21:06.849Z,47.12
2019-03-17T06:22:06.825Z,47.33
2019-03-17T06:23:06.814Z,47.84
2019-03-17T06:24:06.803Z,47.53
2019-03-17T06:25:06.795Z,48.04
2019-03-17T06:26:06.812Z,47.84
2019-03-17T06:27:06.771Z,48.46
2019-03-17T06:28:06.760Z,47.74
2019-03-17T06:29:06.761Z,47.00
2019-03-17T06:30:06.739Z,46.58
2019-03-17T06:31:06.732Z,46.38
2019-03-17T06:32:17.477Z,46.48
2019-03-17T06:33:06.708Z,46.17
2019-03-17T06:34:06.697Z,46.48
2019-03-17T06:35:06.686Z,46.48
2019-03-17T06:36:06.682Z,46.69
2019-03-17T06:37:06.696Z,46.48
2019-03-17T06:38:06.655Z,46.46
2019-03-17T06:39:06.663Z,46.97
2019-03-17T06:40:06.632Z,46.05
2019-03-17T06:41:06.622Z,46.05
2019-03-17T06:42:06.628Z,46.25
2019-03-17T06:43:06.604Z,49.13
2019-03-17T06:44:06.597Z,48.92
2019-03-17T06:45:06.591Z,48.31
2019-03-17T06:46:06.570Z,49.13
2019-03-17T06:47:06.606Z,48.61
2019-03-17T06:48:06.561Z,48.10
2019-03-17T06:49:06.541Z,48.10
2019-03-17T06:50:06.526Z,49.02
2019-03-17T06:51:06.516Z,48.59
2019-03-17T06:52:06.520Z,49.82
2019-03-17T06:53:06.496Z,50.02
2019-03-17T06:54:06.484Z,51.05
2019-03-17T06:55:06.481Z,49.74
2019-03-17T06:56:06.464Z,49.82
2019-03-17T06:57:06.467Z,49.10
2019-03-17T06:58:06.444Z,48.59
2019-03-17T06:59:06.444Z,49.29
2019-03-17T07:00:06.421Z,49.80
2019-03-17T07:01:06.415Z,50.62
2019-03-17T07:02:06.414Z,50.02
2019-03-17T07:03:06.395Z,53.08
2019-03-17T07:04:06.396Z,51.75
2019-03-17T07:05:06.372Z,50.93
2019-03-17T07:06:06.366Z,51.03
2019-03-17T07:07:06.365Z,50.82
2019-03-17T07:08:06.347Z,50.01
2019-03-17T07:09:06.327Z,52.05
2019-03-17T07:10:06.316Z,52.97
2019-03-17T07:11:06.304Z,49.06
2019-03-17T07:12:06.311Z,52.13
2019-03-17T07:13:06.283Z,51.31
2019-03-17T07:14:06.273Z,51.62
2019-03-17T07:15:06.268Z,51.62
2019-03-17T07:16:06.259Z,50.29
2019-03-17T07:17:06.254Z,52.64
2019-03-17T07:18:06.234Z,52.11
2019-03-17T07:19:06.221Z,51.62
2019-03-17T07:20:06.210Z,51.29
2019-03-17T07:21:06.201Z,51.59
2019-03-17T07:22:06.204Z,49.34
2019-03-17T07:23:06.178Z,48.91
2019-03-17T07:24:06.170Z,48.91
2019-03-17T07:25:06.156Z,48.71
2019-03-17T07:26:06.163Z,48.91
2019-03-17T07:27:06.149Z,48.19
2019-03-17T07:28:06.128Z,48.38
2019-03-17T07:29:06.117Z,48.40
2019-03-17T07:30:06.117Z,48.50
2019-03-17T07:31:06.098Z,48.71
2019-03-17T07:32:06.118Z,48.81
2019-03-17T07:33:06.074Z,49.22
2019-03-17T07:34:06.062Z,48.81
2019-03-17T07:35:06.052Z,49.01
2019-03-17T07:36:06.044Z,48.71
2019-03-17T07:37:06.041Z,48.91
2019-03-17T07:38:06.020Z,50.04
2019-03-17T07:39:11.776Z,50.14
2019-03-17T07:40:06.999Z,49.32
2019-03-17T07:41:05.988Z,49.52
2019-03-17T07:42:06.011Z,48.30
2019-03-17T07:43:05.973Z,46.86
2019-03-17T07:44:05.958Z,45.82
2019-03-17T07:45:05.963Z,46.74
2019-03-17T07:46:05.937Z,43.24
2019-03-17T07:47:05.928Z,44.14
2019-03-17T07:48:05.921Z,43.12
2019-03-17T07:49:05.903Z,42.29
2019-03-17T07:50:05.896Z,42.08
2019-03-17T07:51:05.895Z,42.16
2019-03-17T07:52:05.872Z,40.61
2019-03-17T07:53:05.870Z,41.12
2019-03-17T07:54:05.858Z,40.20
2019-03-17T07:55:05.846Z,39.57
2019-03-17T07:56:05.829Z,39.76
2019-03-17T07:57:05.819Z,38.64
2019-03-17T07:58:05.813Z,39.74
2019-03-17T07:59:05.808Z,38.62
2019-03-17T08:00:05.788Z,38.29
2019-03-17T08:01:05.818Z,38.07
2019-03-17T08:02:05.768Z,37.97
2019-03-17T08:03:05.764Z,36.04
2019-03-17T08:04:05.746Z,37.05
2019-03-17T08:05:05.734Z,37.04
2019-03-17T08:06:05.754Z,37.14
2019-03-17T08:07:05.731Z,37.24
2019-03-17T08:08:09.795Z,36.71
2019-03-17T08:09:05.700Z,36.31
2019-03-17T08:10:05.686Z,37.23
2019-03-17T08:11:05.672Z,35.58
2019-03-17T08:12:05.662Z,35.58
2019-03-17T08:13:05.654Z,36.08
2019-03-17T08:14:05.660Z,35.99
2019-03-17T08:15:05.629Z,35.78
2019-03-17T08:16:05.621Z,34.36
2019-03-17T08:17:05.608Z,34.77
2019-03-17T08:18:05.606Z,35.36
2019-03-17T08:19:05.588Z,34.14
2019-03-17T08:20:05.574Z,34.55
2019-03-17T08:21:05.565Z,33.94
2019-03-17T08:22:05.563Z,34.24
2019-03-17T08:23:05.556Z,34.22
2019-03-17T08:24:05.547Z,33.53
2019-03-17T08:25:05.540Z,34.12
2019-03-17T08:26:05.512Z,33.31
2019-03-17T08:27:05.503Z,33.21
2019-03-17T08:28:05.498Z,33.92
2019-03-17T08:29:05.480Z,33.29
2019-03-17T08:30:05.469Z,34.00
2019-03-17T08:31:05.460Z,33.09
2019-03-17T08:32:05.450Z,34.00
2019-03-17T08:33:05.445Z,32.98
2019-03-17T08:34:05.442Z,33.40
2019-03-17T08:35:05.416Z,32.89
2019-03-17T08:36:05.405Z,32.77
2019-03-17T08:37:05.397Z,32.37
2019-03-17T08:38:05.387Z,33.07
2019-03-17T08:39:05.373Z,32.47
2019-03-17T08:40:05.381Z,33.38
2019-03-17T08:41:05.352Z,32.65
2019-03-17T08:42:05.354Z,32.45
2019-03-17T08:43:05.335Z,32.35
2019-03-17T08:44:05.320Z,33.48
2019-03-17T08:45:05.311Z,31.96
2019-03-17T08:46:05.299Z,32.47
2019-03-17T08:47:05.288Z,32.96
2019-03-17T08:48:05.285Z,32.56
2019-03-17T08:49:05.268Z,32.76
2019-03-17T08:50:05.257Z,32.56
2019-03-17T08:51:05.247Z,33.37
2019-03-17T08:52:05.287Z,33.04
2019-03-17T08:53:05.286Z,33.25
2019-03-17T08:54:05.219Z,31.93
2019-03-17T08:55:05.205Z,32.74
2019-03-17T08:56:05.193Z,32.84
2019-03-17T08:57:05.182Z,33.15
2019-03-17T08:58:05.182Z,31.63
2019-03-17T08:59:05.164Z,32.54
2019-03-17T09:00:05.151Z,32.54
2019-03-17T09:01:05.141Z,32.42
2019-03-17T09:02:05.131Z,32.82
2019-03-17T09:03:05.125Z,32.93
2019-03-17T09:04:05.108Z,32.62
2019-03-17T09:05:05.098Z,32.00
2019-03-17T09:06:05.091Z,32.61
2019-03-17T09:07:05.076Z,33.12
2019-03-17T09:08:05.082Z,32.41
2019-03-17T09:09:05.057Z,31.80
2019-03-17T09:10:05.047Z,31.60
2019-03-17T09:11:05.042Z,31.49
2019-03-17T09:12:05.030Z,31.70
2019-03-17T09:13:05.036Z,31.60
2019-03-17T09:14:05.002Z,31.49
2019-03-17T09:15:05.089Z,31.60
2019-03-17T09:16:04.983Z,32.59
2019-03-17T09:17:14.339Z,31.68
2019-03-17T09:18:05.973Z,32.09
2019-03-17T09:19:04.976Z,32.19
2019-03-17T09:20:04.945Z,31.48
2019-03-17T09:21:04.928Z,31.18
2019-03-17T09:22:04.917Z,30.98
2019-03-17T09:23:04.937Z,30.27
2019-03-17T09:24:16.528Z,30.27
2019-03-17T09:25:05.884Z,31.18
2019-03-17T09:26:04.913Z,31.26
2019-03-17T09:27:04.873Z,31.26
2019-03-17T09:28:04.854Z,32.39
2019-03-17T09:29:04.854Z,30.57
2019-03-17T09:30:04.836Z,31.67
2019-03-17T09:31:07.479Z,31.97
2019-03-17T09:32:04.817Z,31.67
2019-03-17T09:33:04.805Z,31.67
2019-03-17T09:34:04.804Z,31.37
2019-03-17T09:35:04.778Z,31.06
2019-03-17T09:36:04.781Z,31.45
2019-03-17T09:37:04.757Z,30.94
2019-03-17T09:38:04.749Z,30.24
2019-03-17T09:39:04.805Z,30.44
2019-03-17T09:40:04.726Z,30.44
2019-03-17T09:41:04.715Z,31.65
2019-03-17T09:42:04.709Z,31.25
2019-03-17T09:43:04.694Z,30.64
2019-03-17T09:44:04.695Z,30.04
2019-03-17T09:45:04.679Z,30.52
2019-03-17T09:46:04.664Z,31.23
2019-03-17T09:47:04.652Z,30.02
2019-03-17T09:48:04.641Z,30.12
2019-03-17T09:49:04.644Z,30.52
2019-03-17T09:50:04.644Z,30.43
2019-03-17T09:51:04.619Z,30.73
2019-03-17T09:52:04.598Z,30.22
2019-03-17T09:53:04.634Z,30.63
2019-03-17T09:54:04.588Z,31.43
2019-03-17T09:55:04.566Z,29.92
2019-03-17T09:56:04.563Z,30.12
2019-03-17T09:57:04.547Z,29.21
2019-03-17T09:58:04.554Z,29.82
2019-03-17T09:59:04.543Z,29.50
2019-03-17T10:00:04.517Z,30.22
2019-03-17T10:01:04.503Z,30.51
2019-03-17T10:02:04.492Z,30.82
2019-03-17T10:03:04.482Z,29.28
2019-03-17T10:04:04.491Z,29.19
2019-03-17T10:05:04.462Z,29.59
2019-03-17T10:06:04.470Z,29.89
2019-03-17T10:07:04.440Z,29.99
2019-03-17T10:08:04.433Z,30.82
2019-03-17T10:09:04.440Z,30.91
2019-03-17T10:10:04.410Z,30.50
2019-03-17T10:11:04.401Z,30.50
2019-03-17T10:12:04.388Z,30.60
2019-03-17T10:13:04.380Z,29.19
2019-03-17T10:14:04.379Z,30.50
2019-03-17T10:15:04.357Z,30.28
2019-03-17T10:16:04.347Z,30.40
2019-03-17T10:17:04.337Z,30.18
2019-03-17T10:18:04.324Z,30.08
2019-03-17T10:19:04.349Z,29.37
2019-03-17T10:20:04.305Z,30.38
2019-03-17T10:21:04.291Z,30.58
2019-03-17T10:22:04.281Z,30.38
2019-03-17T10:23:04.278Z,30.38
2019-03-17T10:24:04.279Z,30.07
2019-03-17T10:25:04.265Z,30.47
2019-03-17T10:26:04.240Z,30.16
2019-03-17T10:27:04.233Z,30.27
2019-03-17T10:28:04.224Z,30.27
2019-03-17T10:29:04.249Z,29.46
2019-03-17T10:30:04.197Z,29.66
2019-03-17T10:31:04.198Z,29.66
2019-03-17T10:32:04.177Z,30.47
2019-03-17T10:33:04.164Z,29.06
2019-03-17T10:34:04.152Z,29.35
2019-03-17T10:35:04.155Z,30.46
2019-03-17T10:36:04.132Z,29.64
2019-03-17T10:37:04.119Z,30.26
2019-03-17T10:38:04.127Z,29.83
2019-03-17T10:39:12.408Z,29.33
2019-03-17T10:40:05.114Z,29.23
2019-03-17T10:41:04.092Z,29.43
2019-03-17T10:42:04.085Z,28.42
2019-03-17T10:43:04.056Z,28.51
2019-03-17T10:44:04.051Z,28.71
2019-03-17T10:45:04.046Z,29.41
2019-03-17T10:46:04.031Z,28.50
2019-03-17T10:47:04.019Z,28.60
2019-03-17T10:48:04.007Z,28.49
2019-03-17T10:49:04.013Z,28.49
2019-03-17T10:50:03.996Z,28.58
2019-03-17T10:51:03.971Z,27.68
2019-03-17T10:52:03.961Z,26.67
2019-03-17T10:53:03.953Z,27.87
2019-03-17T10:54:03.941Z,27.88
2019-03-17T10:55:04.007Z,28.38
2019-03-17T10:56:03.920Z,27.87
2019-03-17T10:57:03.909Z,27.35
2019-03-17T10:58:03.901Z,27.25
2019-03-17T10:59:03.887Z,28.34
2019-03-17T11:00:03.889Z,27.83
2019-03-17T11:01:03.867Z,26.91
2019-03-17T11:02:03.855Z,26.51
2019-03-17T11:03:03.844Z,26.21
2019-03-17T11:04:03.835Z,26.72
2019-03-17T11:05:03.856Z,26.72
2019-03-17T11:06:03.813Z,26.53
2019-03-17T11:07:03.808Z,26.85
2019-03-17T11:08:03.793Z,26.75
2019-03-17T11:09:03.781Z,26.85
2019-03-17T11:10:03.786Z,26.73
2019-03-17T11:11:03.759Z,27.14
2019-03-17T11:12:03.749Z,27.64
2019-03-17T11:13:03.739Z,26.53
2019-03-17T11:14:03.733Z,26.73
2019-03-17T11:15:03.757Z,26.93
2019-03-17T11:16:03.706Z,26.62
2019-03-17T11:17:03.717Z,26.21
2019-03-17T11:18:03.690Z,26.72
2019-03-17T11:19:03.707Z,27.11
2019-03-17T11:20:03.725Z,26.91
2019-03-17T11:21:03.654Z,26.79
2019-03-17T11:22:03.644Z,26.50
2019-03-17T11:23:03.635Z,26.78
2019-03-17T11:24:03.627Z,26.58
2019-03-17T11:25:03.623Z,26.58
2019-03-17T11:26:03.604Z,26.68
2019-03-17T11:27:03.593Z,27.70
2019-03-17T11:28:03.598Z,27.60
2019-03-17T11:29:03.576Z,27.69
2019-03-17T11:30:03.581Z,26.89
2019-03-17T11:31:03.553Z,26.68
2019-03-17T11:32:06.345Z,26.90
2019-03-17T11:33:03.530Z,27.60
2019-03-17T11:34:03.529Z,27.72
2019-03-17T11:35:03.535Z,27.91
2019-03-17T11:36:03.499Z,27.72
2019-03-17T11:37:03.503Z,28.43
2019-03-17T11:38:03.478Z,28.31
2019-03-17T11:39:03.473Z,27.61
2019-03-17T11:40:03.461Z,28.11
2019-03-17T11:41:03.457Z,28.22
2019-03-17T11:42:03.438Z,28.22
2019-03-17T11:43:03.518Z,29.11
2019-03-17T11:44:03.418Z,28.92
2019-03-17T11:45:03.421Z,28.92
2019-03-17T11:46:03.406Z,29.00
2019-03-17T11:47:03.387Z,29.31
2019-03-17T11:48:03.374Z,28.62
2019-03-17T11:49:03.368Z,29.00
2019-03-17T11:50:03.359Z,28.19
2019-03-17T11:51:03.356Z,28.58
2019-03-17T11:52:03.336Z,29.06
2019-03-17T11:53:03.323Z,28.46
2019-03-17T11:54:03.314Z,28.56
2019-03-17T11:55:03.316Z,28.25
2019-03-17T11:56:03.297Z,28.35
2019-03-17T11:57:03.281Z,28.35
2019-03-17T11:58:03.268Z,28.26
2019-03-17T11:59:03.261Z,28.77
2019-03-17T12:00:03.252Z,28.25
2019-03-17T12:01:03.248Z,27.16
2019-03-17T12:02:03.227Z,29.16
2019-03-17T12:03:03.215Z,27.15
2019-03-17T12:04:03.209Z,27.35
2019-03-17T12:05:03.194Z,27.36
2019-03-17T12:06:03.193Z,28.05
2019-03-17T12:07:03.176Z,29.05
2019-03-17T12:08:03.171Z,28.46
2019-03-17T12:09:04.472Z,29.05
2019-03-17T12:10:03.140Z,29.16
2019-03-17T12:11:03.145Z,28.45
2019-03-17T12:12:03.124Z,29.43
2019-03-17T12:13:03.110Z,28.62
2019-03-17T12:14:03.142Z,29.25
2019-03-17T12:15:03.104Z,29.06
2019-03-17T12:16:03.090Z,29.15
2019-03-17T12:17:03.067Z,28.74
2019-03-17T12:18:03.059Z,29.16
2019-03-17T12:19:03.049Z,29.08
2019-03-17T12:20:03.036Z,30.07
2019-03-17T12:21:03.043Z,29.36
2019-03-17T12:22:08.871Z,28.22
2019-03-17T12:23:04.004Z,30.18
2019-03-17T12:24:02.994Z,29.90
2019-03-17T12:25:02.986Z,30.01
2019-03-17T12:26:03.030Z,29.90
2019-03-17T12:27:02.971Z,27.22
2019-03-17T12:28:02.954Z,25.02
2019-03-17T12:29:02.940Z,24.74
2019-03-17T12:30:02.931Z,26.70
2019-03-17T12:31:02.933Z,23.93
2019-03-17T12:32:02.910Z,25.02
2019-03-17T12:33:02.906Z,25.30
2019-03-17T12:34:02.890Z,25.70
2019-03-17T12:35:02.878Z,24.48
2019-03-17T12:36:02.905Z,25.51
2019-03-17T12:37:02.875Z,27.04
2019-03-17T12:38:02.846Z,26.39
2019-03-17T12:39:02.837Z,27.64
2019-03-17T12:40:03.443Z,28.30
2019-03-17T12:41:02.815Z,30.24
2019-03-17T12:42:02.816Z,30.26
2019-03-17T12:43:02.793Z,31.57
2019-03-17T12:44:02.786Z,32.59
2019-03-17T12:45:02.777Z,33.42
2019-03-17T12:46:02.764Z,35.77
2019-03-17T12:47:02.806Z,37.29
2019-03-17T12:48:02.741Z,38.71
2019-03-17T12:49:02.740Z,39.54
2019-03-17T12:50:02.734Z,40.66
2019-03-17T12:51:02.713Z,41.29
2019-03-17T12:52:02.709Z,41.51